Beaver Creek, Ohio
Current Conditions -  °F | °C
As of 7:08 AM on Sunday 21 Dec 2014 (Local Time) from KFFO Reporting Station
Haze Haze  
Wind Chill: 21°   Ceiling: NA
Heat Index: 21°   Visibility: 4mi
Dew Point: 18°   Wind: 0mph
Humidity: 86%   Direction: NA
Pressure: 30.32"   Gusts: NA
Location:  39.7649°N, 84.0863°W
Report Text: KFFO 211208Z 00000KT 4SM R05L/1800FT BR M06/M08 A3032 RMK AO2A BCFG PRSNT
Loading
Personal Weather Stations






























Interactive Weather Map New forecast layout! Learn more

10-Day Weather Forecast

Advertisements
Track Severe Weather on mobile